Time;durP1;ratioP1;P1;durP2;ratioP2;P2;SDS_P1;SDS_P2;PMS_P1;PMS_P2;Temp;Humidity;BMP_temperature;BMP_pressure;BME280_temperature;BME280_humidity;BME280_pressure;Samples;Min_cycle;Max_cycle;Signal;HPM_P1;HPM_P2
2022/02/10 00:14:13;;;;;;;37.97;16.85;;;6.50;99.90;;;;;;5017403;28;20080;-47
2022/02/10 00:17:05;;;;;;;40.00;15.27;;;6.50;99.90;;;;;;5027884;28;20099;-49
2022/02/10 00:19:47;;;;;;;45.80;15.68;;;6.60;99.90;;;;;;5016382;28;20553;-50
2022/02/10 00:22:21;;;;;;;43.63;15.65;;;6.60;99.90;;;;;;5009526;28;20038;-52
2022/02/10 00:25:23;;;;;;;39.85;15.32;;;6.60;99.90;;;;;;5020024;28;20168;-49
2022/02/10 00:35:56;;;;;;;39.28;15.90;;;6.70;99.90;;;;;;5027603;28;20441;-49
2022/02/10 00:38:30;;;;;;;38.65;16.77;;;6.70;99.90;;;;;;5022582;28;20420;-46
2022/02/10 00:40:56;;;;;;;38.20;15.93;;;6.70;99.90;;;;;;5010978;28;20061;-49
2022/02/10 00:43:22;;;;;;;43.55;17.48;;;6.70;99.90;;;;;;5028058;28;20068;-46
2022/02/10 00:45:47;;;;;;;40.42;16.55;;;6.60;99.90;;;;;;5026481;28;20091;-48
2022/02/10 00:48:14;;;;;;;48.83;17.85;;;6.70;99.90;;;;;;5018600;28;20041;-47
2022/02/10 00:50:44;;;;;;;38.20;17.90;;;6.70;99.90;;;;;;4977910;28;1083493;-46
2022/02/10 00:53:30;;;;;;;46.50;18.02;;;6.70;99.90;;;;;;5021918;28;20032;-47
2022/02/10 00:55:56;;;;;;;45.85;18.02;;;6.70;99.90;;;;;;5025124;28;20037;-49
2022/02/10 00:58:27;;;;;;;47.08;16.95;;;6.70;99.90;;;;;;5009048;28;20101;-46
2022/02/10 01:30:27;;;;;;;47.60;20.42;;;6.80;99.90;;;;;;5028782;28;20517;-48
2022/02/10 01:32:56;;;;;;;48.05;18.33;;;6.80;99.90;;;;;;5019959;28;20121;-47
2022/02/10 01:35:24;;;;;;;45.38;18.90;;;6.80;99.90;;;;;;5027443;28;20533;-51
2022/02/10 01:37:50;;;;;;;55.75;19.92;;;6.90;99.90;;;;;;5020548;28;20041;-50
2022/02/10 02:04:17;;;;;;;49.22;20.77;;;6.80;99.90;;;;;;5025446;28;20399;-49
2022/02/10 02:06:45;;;;;;;56.28;21.15;;;6.80;99.90;;;;;;5029092;28;20022;-49
2022/02/10 02:09:14;;;;;;;50.42;21.35;;;6.80;99.90;;;;;;5024994;28;20486;-49
2022/02/10 02:11:44;;;;;;;60.03;22.73;;;6.80;99.90;;;;;;5027649;28;20030;-50
2022/02/10 02:14:16;;;;;;;45.95;20.63;;;6.90;99.90;;;;;;5025005;28;20075;-49
2022/02/10 02:16:46;;;;;;;47.80;22.20;;;6.90;99.90;;;;;;5026303;28;20127;-49
2022/02/10 02:19:12;;;;;;;51.88;22.73;;;6.90;99.90;;;;;;5025051;28;20021;-49
2022/02/10 02:21:40;;;;;;;61.30;23.80;;;6.90;99.90;;;;;;5022041;28;20510;-48
2022/02/10 02:24:06;;;;;;;53.28;22.98;;;6.90;99.90;;;;;;5031353;28;20120;-51
2022/02/10 02:26:33;;;;;;;51.20;22.23;;;6.90;99.90;;;;;;5026638;28;20076;-48
2022/02/10 02:29:02;;;;;;;53.20;22.10;;;6.90;99.90;;;;;;5025152;28;20120;-48
2022/02/10 02:31:36;;;;;;;56.70;22.75;;;6.90;99.90;;;;;;5030836;28;20025;-48
2022/02/10 02:34:26;;;;;;;47.38;21.80;;;6.90;99.90;;;;;;5031352;28;20041;-48
2022/02/10 03:06:48;;;;;;;30.23;13.73;;;6.90;99.90;;;;;;5020795;28;20084;-49
2022/02/10 03:09:21;;;;;;;34.35;14.60;;;6.90;99.90;;;;;;5030601;28;20109;-48
2022/02/10 03:11:47;;;;;;;33.47;13.50;;;6.90;99.90;;;;;;5021231;28;20034;-47
2022/02/10 03:14:20;;;;;;;33.33;12.10;;;6.90;99.90;;;;;;5030520;28;20040;-47
2022/02/10 03:59:48;;;;;;;26.85;10.50;;;6.80;99.90;;;;;;5018641;28;20049;-48
2022/02/10 04:06:33;;;;;;;24.25;7.93;;;6.40;99.90;;;;;;5020218;28;20025;-45
2022/02/10 04:12:38;;;;;;;26.98;7.85;;;6.30;99.90;;;;;;5025066;28;20044;-46
2022/02/10 04:17:07;;;;;;;24.08;8.15;;;6.40;99.90;;;;;;5029790;28;20041;-46
2022/02/10 04:22:20;;;;;;;31.63;8.75;;;6.30;99.90;;;;;;5017186;28;20018;-46
2022/02/10 04:54:39;;;;;;;16.00;8.85;;;6.50;99.90;;;;;;5019743;28;20048;-53
2022/02/10 04:59:56;;;;;;;24.33;8.70;;;6.50;99.90;;;;;;5019288;28;20030;-50
2022/02/10 05:20:29;;;;;;;22.95;10.35;;;6.50;99.90;;;;;;5016640;28;20451;-49
2022/02/10 05:33:52;;;;;;;22.33;9.70;;;6.50;99.90;;;;;;5020803;28;20570;-48
2022/02/10 05:36:21;;;;;;;21.08;9.55;;;6.50;99.90;;;;;;5023416;28;20091;-51
2022/02/10 05:38:57;;;;;;;24.90;10.32;;;6.50;99.90;;;;;;5021988;28;20125;-47
2022/02/10 05:49:43;;;;;;;28.75;12.32;;;6.60;99.90;;;;;;5027904;28;20369;-47
2022/02/10 05:54:42;;;;;;;26.30;12.55;;;6.60;99.90;;;;;;5024301;28;20041;-48
2022/02/10 06:54:37;;;;;;;14.52;6.50;;;6.60;99.90;;;;;;5021454;28;20456;-51
2022/02/10 06:57:47;;;;;;;13.63;5.65;;;6.50;99.90;;;;;;5018196;28;20121;-46
2022/02/10 07:03:00;;;;;;;15.27;6.10;;;6.50;99.90;;;;;;5022673;28;20048;-45
2022/02/10 07:54:28;;;;;;;10.25;4.70;;;6.50;99.90;;;;;;4975228;28;20408;-52
2022/02/10 07:57:09;;;;;;;11.23;6.07;;;6.60;99.90;;;;;;4975820;28;20049;-51
2022/02/10 08:00:22;;;;;;;17.88;5.57;;;6.60;99.90;;;;;;5011114;28;20049;-47
2022/02/10 08:52:14;;;;;;;17.27;9.27;;;6.60;99.90;;;;;;5025364;28;20553;-43
2022/02/10 08:56:45;;;;;;;21.15;9.73;;;6.60;99.90;;;;;;5027817;28;20025;-49
2022/02/10 09:18:23;;;;;;;20.45;10.00;;;6.80;99.90;;;;;;5021518;28;20455;-47
2022/02/10 09:49:26;;;;;;;16.50;9.35;;;7.10;99.90;;;;;;5024474;28;20064;-44
2022/02/10 09:54:40;;;;;;;27.35;11.95;;;7.20;99.90;;;;;;5019156;28;20387;-50
2022/02/10 10:04:13;;;;;;;17.65;9.63;;;7.20;99.90;;;;;;5030272;28;20037;-48
2022/02/10 10:06:49;;;;;;;25.25;11.00;;;7.10;99.90;;;;;;5022581;28;20471;-47
2022/02/10 10:14:42;;;;;;;23.55;11.02;;;6.90;99.90;;;;;;5031921;28;20030;-45
2022/02/10 10:20:02;;;;;;;21.17;10.25;;;6.90;99.90;;;;;;5031227;28;20072;-46
2022/02/10 10:23:03;;;;;;;22.02;9.52;;;7.00;99.90;;;;;;5026083;28;20037;-45
2022/02/10 10:51:24;;;;;;;18.65;9.40;;;7.50;99.90;;;;;;5034014;28;20103;-48
2022/02/10 10:53:49;;;;;;;22.20;10.60;;;7.50;99.90;;;;;;5027341;28;20046;-47
2022/02/10 10:59:10;;;;;;;18.75;9.73;;;7.50;99.90;;;;;;5050204;28;20033;-46
2022/02/10 11:38:40;;;;;;;26.08;12.63;;;7.60;99.90;;;;;;5010719;28;20398;-51
2022/02/10 11:41:05;;;;;;;21.15;11.77;;;7.70;99.90;;;;;;5027251;28;20498;-48
2022/02/10 12:33:46;;;;;;;27.98;8.60;;;8.20;99.90;;;;;;5013898;28;20136;-51
2022/02/10 12:36:09;;;;;;;15.38;6.40;;;8.10;99.90;;;;;;5027523;28;20088;-49
2022/02/10 12:38:46;;;;;;;13.60;5.97;;;8.20;99.90;;;;;;5025024;28;20037;-47
2022/02/10 12:44:10;;;;;;;23.48;6.53;;;8.40;99.90;;;;;;5026580;28;20408;-48
2022/02/10 14:16:57;;;;;;;21.00;2.88;;;8.90;99.90;;;;;;5028453;28;20042;-49
2022/02/10 14:22:26;;;;;;;20.38;3.65;;;8.90;99.90;;;;;;5016772;28;20183;-50
2022/02/10 14:27:38;;;;;;;14.30;3.63;;;8.70;99.90;;;;;;5030951;28;20095;-50
2022/02/10 14:30:05;;;;;;;21.83;3.63;;;8.70;99.90;;;;;;5024341;28;20491;-52
2022/02/10 14:32:34;;;;;;;16.40;2.58;;;8.60;99.90;;;;;;5023190;28;20033;-52
2022/02/10 14:35:12;;;;;;;15.13;3.08;;;8.40;99.90;;;;;;5026948;28;20041;-53
2022/02/10 15:14:07;;;;;;;6.30;1.83;;;7.40;99.90;;;;;;5026986;28;20041;-49
2022/02/10 15:51:32;;;;;;;14.60;3.60;;;5.90;99.90;;;;;;5029187;28;20033;-50
2022/02/10 16:17:53;;;;;;;16.70;3.33;;;5.70;99.90;;;;;;5001036;28;20034;-47
2022/02/10 16:20:20;;;;;;;15.95;3.33;;;5.70;99.90;;;;;;5029400;28;20048;-52
2022/02/10 16:23:00;;;;;;;16.75;3.33;;;5.70;99.90;;;;;;5027969;28;20030;-47
2022/02/10 16:25:30;;;;;;;13.32;3.75;;;5.70;99.90;;;;;;5028025;28;20322;-50
2022/02/10 16:28:08;;;;;;;17.42;3.70;;;5.70;99.90;;;;;;5028394;28;20107;-50
2022/02/10 16:30:36;;;;;;;25.67;4.75;;;5.70;99.90;;;;;;5028722;28;20030;-47
2022/02/10 16:33:03;;;;;;;26.77;4.72;;;5.70;99.90;;;;;;5028593;28;20037;-48
2022/02/10 16:35:29;;;;;;;20.58;3.92;;;5.80;99.90;;;;;;5029179;28;20052;-48
2022/02/10 16:37:55;;;;;;;12.52;3.53;;;5.70;99.90;;;;;;5028681;28;20033;-49
2022/02/10 16:40:22;;;;;;;15.20;2.95;;;5.70;99.90;;;;;;5028202;28;20040;-49
2022/02/10 16:42:48;;;;;;;14.50;3.72;;;5.70;99.90;;;;;;5022389;28;20061;-50
2022/02/10 16:45:15;;;;;;;18.48;3.70;;;5.70;99.90;;;;;;5023890;28;20083;-52
2022/02/10 16:47:40;;;;;;;12.82;3.70;;;5.70;99.90;;;;;;5010934;28;20117;-56
2022/02/10 16:50:06;;;;;;;20.88;4.13;;;5.70;99.90;;;;;;5007651;28;20138;-53
2022/02/10 16:52:38;;;;;;;17.73;3.78;;;5.70;99.90;;;;;;5008108;28;20033;-53
2022/02/10 16:58:08;;;;;;;26.65;3.60;;;5.80;99.90;;;;;;5027684;28;20103;-53
2022/02/10 17:03:27;;;;;;;18.17;3.65;;;5.80;99.90;;;;;;5029459;28;20108;-55
2022/02/10 17:14:36;;;;;;;28.20;4.65;;;5.70;99.90;;;;;;5030027;28;20091;-53
2022/02/10 17:27:40;;;;;;;22.77;3.97;;;5.70;99.90;;;;;;5032378;28;20448;-50
2022/02/10 17:30:54;;;;;;;28.10;4.65;;;5.70;99.90;;;;;;5033117;28;20084;-51
2022/02/10 17:33:19;;;;;;;25.20;4.45;;;5.70;99.90;;;;;;5032511;28;20479;-51
2022/02/10 17:41:48;;;;;;;22.83;4.00;;;5.70;99.90;;;;;;5033394;28;20474;-50
2022/02/10 17:52:10;;;;;;;24.67;5.40;;;5.60;99.90;;;;;;5029031;28;20041;-52
2022/02/10 17:54:35;;;;;;;26.20;4.93;;;5.50;99.90;;;;;;5022504;28;20049;-53
2022/02/10 17:57:01;;;;;;;25.80;5.65;;;5.50;99.90;;;;;;5021870;28;20088;-52
2022/02/10 17:59:28;;;;;;;19.45;5.60;;;5.40;99.90;;;;;;5023697;28;20034;-50
2022/02/10 18:01:53;;;;;;;22.35;5.32;;;5.40;99.90;;;;;;5030068;28;22043;-56
2022/02/10 18:04:23;;;;;;;30.17;5.07;;;5.40;99.90;;;;;;5026877;28;20071;-52
2022/02/10 18:06:53;;;;;;;16.15;3.97;;;5.40;99.90;;;;;;5026238;28;20075;-53
2022/02/10 18:14:44;;;;;;;21.40;5.07;;;5.40;99.90;;;;;;5022938;28;20037;-49
2022/02/10 18:17:23;;;;;;;25.40;5.10;;;5.40;99.90;;;;;;5020426;28;20041;-51
2022/02/10 18:19:56;;;;;;;27.45;4.63;;;5.40;99.90;;;;;;5022348;28;20033;-55
2022/02/10 18:24:59;;;;;;;24.50;4.97;;;5.40;99.90;;;;;;5030583;28;20057;-51
2022/02/10 18:30:21;;;;;;;29.23;5.88;;;5.40;99.90;;;;;;5011455;28;20136;-50
2022/02/10 18:37:37;;;;;;;25.73;6.75;;;5.40;99.90;;;;;;5029854;28;20083;-49
2022/02/10 19:10:26;;;;;;;15.95;4.40;;;5.10;99.90;;;;;;5021683;28;20352;-51
2022/02/10 19:12:57;;;;;;;17.30;5.30;;;5.10;99.90;;;;;;5026388;28;20110;-54
2022/02/10 19:15:32;;;;;;;23.30;5.72;;;5.10;99.90;;;;;;5028901;28;20037;-52
2022/02/10 19:17:59;;;;;;;23.20;5.10;;;5.10;99.90;;;;;;5029767;28;20045;-56
2022/02/10 19:20:26;;;;;;;22.65;4.70;;;5.00;99.90;;;;;;5044115;28;20025;-53
2022/02/10 19:22:52;;;;;;;19.17;5.88;;;5.00;99.90;;;;;;5024270;28;20600;-52
2022/02/10 19:25:20;;;;;;;19.55;4.75;;;5.00;99.90;;;;;;5028925;28;20541;-52
2022/02/10 19:27:46;;;;;;;15.93;4.50;;;4.90;99.90;;;;;;5029644;28;20037;-55
2022/02/10 19:30:14;;;;;;;18.52;4.38;;;4.90;99.90;;;;;;5024166;28;20025;-50
2022/02/10 19:32:45;;;;;;;21.20;5.00;;;4.90;99.90;;;;;;5033122;28;20033;-52
2022/02/10 19:35:13;;;;;;;20.85;5.32;;;4.90;99.90;;;;;;5020603;28;20030;-51
2022/02/10 19:37:39;;;;;;;19.90;4.82;;;4.90;99.90;;;;;;5027041;28;20111;-51
2022/02/10 19:40:05;;;;;;;19.55;5.30;;;4.90;99.90;;;;;;5025878;28;20476;-54
2022/02/10 19:42:35;;;;;;;26.90;5.80;;;4.90;99.90;;;;;;5029265;28;20037;-51
2022/02/10 19:45:03;;;;;;;15.25;4.50;;;4.90;99.90;;;;;;5026918;28;20446;-52
2022/02/10 19:47:31;;;;;;;20.75;5.07;;;4.90;99.90;;;;;;5028584;28;20037;-51
2022/02/10 19:49:58;;;;;;;19.25;4.53;;;4.80;99.90;;;;;;5026939;28;20502;-52
2022/02/10 19:52:25;;;;;;;23.88;4.78;;;4.90;99.90;;;;;;5030234;28;20033;-50
2022/02/10 19:54:54;;;;;;;22.48;5.05;;;4.90;99.90;;;;;;5023107;28;20033;-52
2022/02/10 19:57:22;;;;;;;15.60;4.55;;;4.80;99.90;;;;;;5020611;28;20033;-51
2022/02/10 19:59:48;;;;;;;19.02;5.13;;;4.80;99.90;;;;;;5022485;28;20052;-53
2022/02/10 20:02:16;;;;;;;21.45;4.63;;;4.80;99.90;;;;;;5025625;28;20368;-53
2022/02/10 20:04:42;;;;;;;23.27;5.43;;;4.80;99.90;;;;;;5024931;28;20060;-53
2022/02/10 20:07:08;;;;;;;27.77;5.22;;;4.80;99.90;;;;;;5027284;28;20064;-50
2022/02/10 20:09:34;;;;;;;22.58;4.57;;;4.80;99.90;;;;;;5019581;28;20029;-52
2022/02/10 20:11:59;;;;;;;27.73;5.75;;;4.80;99.90;;;;;;5025872;28;20043;-50
2022/02/10 20:14:25;;;;;;;30.30;5.43;;;4.70;99.90;;;;;;5018619;28;20026;-55
2022/02/10 20:16:54;;;;;;;21.25;5.47;;;4.80;99.90;;;;;;5017054;28;20154;-55
2022/02/10 20:19:20;;;;;;;19.05;5.43;;;4.80;99.90;;;;;;5029804;28;20057;-53
2022/02/10 20:21:45;;;;;;;30.17;5.47;;;4.80;99.90;;;;;;5019810;28;20034;-51
2022/02/10 20:24:11;;;;;;;23.20;5.63;;;4.80;99.90;;;;;;5019996;28;20029;-51
2022/02/10 20:26:38;;;;;;;23.98;5.65;;;4.80;99.90;;;;;;5027058;28;20025;-51
2022/02/10 20:29:04;;;;;;;28.35;5.40;;;4.70;99.90;;;;;;5024949;28;20341;-51
2022/02/10 20:31:30;;;;;;;23.80;4.30;;;4.80;99.90;;;;;;5025073;28;20072;-52
2022/02/10 20:33:57;;;;;;;27.60;4.53;;;4.80;99.90;;;;;;5025385;28;20041;-52
2022/02/10 20:36:23;;;;;;;23.17;4.45;;;4.80;99.90;;;;;;5023868;28;20082;-51
2022/02/10 20:38:54;;;;;;;25.65;5.47;;;4.80;99.90;;;;;;5025417;28;20112;-54
2022/02/10 20:41:20;;;;;;;29.53;4.93;;;4.80;99.90;;;;;;5020454;28;20033;-54
2022/02/10 20:43:48;;;;;;;28.17;5.35;;;4.80;99.90;;;;;;5027784;28;20048;-52
2022/02/10 20:46:17;;;;;;;21.77;4.13;;;4.70;99.90;;;;;;5015092;28;20432;-56
2022/02/10 20:48:44;;;;;;;24.98;4.32;;;4.70;99.90;;;;;;5030431;28;20508;-50
2022/02/10 20:51:12;;;;;;;31.02;4.95;;;4.70;99.90;;;;;;5024499;28;20038;-53
2022/02/10 20:53:41;;;;;;;22.08;3.65;;;4.70;99.90;;;;;;5024074;28;20048;-54
2022/02/10 20:56:08;;;;;;;17.05;3.17;;;4.70;99.90;;;;;;5028143;28;20021;-55
2022/02/10 20:58:34;;;;;;;18.98;4.28;;;4.70;99.90;;;;;;5023284;28;20045;-51
2022/02/10 21:01:02;;;;;;;21.00;4.53;;;4.70;99.90;;;;;;5032547;28;20548;-51
2022/02/10 21:03:30;;;;;;;27.15;4.55;;;4.60;99.90;;;;;;5021223;28;20030;-52
2022/02/10 21:11:02;;;;;;;26.65;4.57;;;4.60;99.90;;;;;;5027765;28;20034;-52
2022/02/10 21:13:29;;;;;;;23.92;3.95;;;4.50;99.90;;;;;;5023990;28;20480;-53
2022/02/10 21:15:55;;;;;;;25.45;4.60;;;4.50;99.90;;;;;;5031776;28;20038;-54
2022/02/10 21:18:22;;;;;;;21.30;4.75;;;4.50;99.90;;;;;;5028713;28;20021;-55
2022/02/10 21:20:49;;;;;;;15.82;4.30;;;4.50;99.90;;;;;;5027783;28;20029;-54
2022/02/10 21:25:42;;;;;;;35.95;4.35;;;4.50;99.90;;;;;;5034012;28;20026;-51
2022/02/10 21:28:16;;;;;;;19.13;4.10;;;4.50;99.90;;;;;;5035996;28;20025;-54
2022/02/10 21:30:45;;;;;;;29.58;4.65;;;4.50;99.90;;;;;;5029172;28;20502;-54
2022/02/10 21:33:19;;;;;;;23.02;4.13;;;4.40;99.90;;;;;;5028082;28;20033;-50
2022/02/10 21:38:30;;;;;;;26.88;4.65;;;4.40;99.90;;;;;;5032266;28;20032;-51
2022/02/10 21:57:27;;;;;;;16.80;4.55;;;4.40;99.90;;;;;;5026243;28;20045;-54
2022/02/10 22:16:44;;;;;;;27.42;3.70;;;4.30;99.90;;;;;;5021986;28;20103;-54
2022/02/10 22:21:47;;;;;;;24.40;3.83;;;4.30;99.90;;;;;;5031246;28;20048;-55
2022/02/10 22:24:15;;;;;;;36.00;4.72;;;4.40;99.90;;;;;;5032676;28;20033;-52
2022/02/10 22:26:42;;;;;;;30.08;4.93;;;4.30;99.90;;;;;;5033224;28;20049;-55
2022/02/10 22:29:14;;;;;;;18.08;4.55;;;4.30;99.90;;;;;;5033326;28;20026;-51
2022/02/10 22:36:34;;;;;;;20.08;3.80;;;4.40;99.90;;;;;;5030666;28;20033;-55
2022/02/10 22:39:01;;;;;;;29.92;4.75;;;4.40;99.90;;;;;;5031304;28;20041;-54
2022/02/10 22:41:28;;;;;;;21.30;4.18;;;4.30;99.90;;;;;;5030884;28;20036;-55
2022/02/10 22:43:54;;;;;;;26.42;4.57;;;4.40;99.90;;;;;;5031003;28;20060;-55
2022/02/10 22:46:21;;;;;;;23.73;4.03;;;4.40;99.90;;;;;;5030644;28;20371;-56
2022/02/10 22:48:49;;;;;;;18.30;3.45;;;4.30;99.90;;;;;;5030841;28;20028;-56
2022/02/10 22:51:19;;;;;;;18.65;3.70;;;4.30;99.90;;;;;;5030995;28;20153;-51
2022/02/10 22:53:45;;;;;;;22.27;3.78;;;4.30;99.90;;;;;;5030559;28;20073;-55
2022/02/10 22:56:15;;;;;;;32.67;4.88;;;4.30;99.90;;;;;;5030730;28;20029;-52
2022/02/10 22:58:41;;;;;;;27.02;4.57;;;4.30;99.90;;;;;;5014705;28;20036;-55
2022/02/10 23:01:09;;;;;;;28.50;5.10;;;4.30;99.90;;;;;;5031082;28;20041;-55
2022/02/10 23:03:39;;;;;;;12.52;3.28;;;4.30;99.90;;;;;;5030646;28;20544;-54
2022/02/10 23:06:06;;;;;;;16.33;4.22;;;4.30;99.90;;;;;;5029879;28;20033;-54
2022/02/10 23:08:33;;;;;;;23.55;3.80;;;4.30;99.90;;;;;;5030594;28;20022;-51
2022/02/10 23:11:00;;;;;;;29.60;4.45;;;4.30;99.90;;;;;;5031396;28;20036;-51
2022/02/10 23:13:29;;;;;;;38.72;4.70;;;4.30;99.90;;;;;;5031066;28;20091;-56
2022/02/10 23:15:57;;;;;;;24.38;4.82;;;4.30;99.90;;;;;;5032018;28;20040;-53
2022/02/10 23:18:26;;;;;;;32.83;5.40;;;4.20;99.90;;;;;;5031123;28;20441;-55
2022/02/10 23:20:53;;;;;;;22.48;4.47;;;4.30;99.90;;;;;;5029642;28;20104;-52
2022/02/10 23:23:21;;;;;;;34.85;5.13;;;4.30;99.90;;;;;;5030456;28;20048;-57
2022/02/10 23:25:49;;;;;;;22.17;3.83;;;4.30;99.90;;;;;;5028338;28;20036;-55
2022/02/10 23:28:23;;;;;;;21.38;4.85;;;4.40;99.90;;;;;;5030533;28;20112;-56
2022/02/10 23:30:49;;;;;;;28.40;4.05;;;4.40;99.90;;;;;;5030119;28;20022;-57
2022/02/10 23:33:24;;;;;;;18.88;4.03;;;4.40;99.90;;;;;;5030408;28;20037;-56
2022/02/10 23:38:47;;;;;;;24.95;4.40;;;4.40;99.90;;;;;;5029626;28;20379;-56
2022/02/10 23:44:03;;;;;;;22.20;4.80;;;4.40;99.90;;;;;;5030047;28;20052;-56
2022/02/10 23:46:29;;;;;;;22.03;3.87;;;4.40;99.90;;;;;;5029377;28;20483;-56
2022/02/10 23:48:56;;;;;;;20.13;4.15;;;4.30;99.90;;;;;;5029946;28;20025;-53
2022/02/10 23:51:26;;;;;;;26.45;4.35;;;4.30;99.90;;;;;;5029524;28;20033;-56
2022/02/10 23:53:52;;;;;;;21.20;4.13;;;4.30;99.90;;;;;;5029844;28;20064;-55
2022/02/10 23:56:21;;;;;;;35.63;5.25;;;4.30;99.90;;;;;;5029139;28;20076;-52
2022/02/10 23:58:58;;;;;;;24.10;3.90;;;4.20;99.90;;;;;;5029770;28;20120;-56
